createdAt,value
2023-04-04T00:03:01.506Z,78.71
2023-04-04T00:08:04.396Z,79.37
2023-04-04T00:13:09.168Z,79.10
2023-04-04T00:18:13.409Z,80.25
2023-04-04T00:23:15.222Z,80.58
2023-04-04T00:28:19.472Z,80.37
2023-04-04T00:33:21.684Z,80.43
2023-04-04T00:38:25.796Z,80.56
2023-04-04T00:43:27.467Z,81.81
2023-04-04T00:48:29.732Z,81.56
2023-04-04T00:53:32.235Z,82.41
2023-04-04T00:58:34.111Z,83.23
2023-04-04T01:03:35.846Z,83.08
2023-04-04T01:08:39.757Z,84.16
2023-04-04T01:13:44.385Z,84.29
2023-04-04T01:18:54.075Z,84.74
2023-04-04T01:24:04.411Z,85.60
2023-04-04T01:29:27.737Z,85.84
2023-04-04T01:35:08.406Z,87.07
2023-04-04T01:40:37.482Z,86.65
2023-04-04T01:45:40.918Z,87.25
2023-04-04T01:50:50.052Z,87.33
2023-04-04T01:55:52.172Z,88.10
2023-04-04T02:00:55.278Z,87.95
2023-04-04T02:06:00.161Z,88.56
2023-04-04T02:11:04.720Z,88.50
2023-04-04T02:16:07.240Z,89.19
2023-04-04T02:21:09.063Z,89.71
2023-04-04T02:26:13.325Z,90.18
2023-04-04T02:31:15.276Z,90.42
2023-04-04T02:36:22.174Z,90.45
2023-04-04T02:41:26.734Z,91.36
2023-04-04T02:46:31.010Z,92.18
2023-04-04T02:51:38.226Z,92.51
2023-04-04T02:56:40.171Z,92.38
2023-04-04T03:01:44.729Z,92.29
2023-04-04T03:06:48.320Z,92.25
2023-04-04T03:11:55.342Z,92.68
2023-04-04T03:16:57.534Z,93.94
2023-04-04T03:22:04.577Z,93.33
2023-04-04T03:27:09.238Z,93.97
2023-04-04T03:32:11.169Z,93.56
2023-04-04T03:37:15.575Z,93.85
2023-04-04T03:42:17.311Z,93.78
2023-04-04T03:47:19.609Z,94.57
2023-04-04T03:52:21.458Z,94.10
2023-04-04T03:57:23.214Z,95.14
2023-04-04T04:02:24.996Z,95.17
2023-04-04T04:07:28.961Z,95.53
2023-04-04T04:12:30.745Z,100.00
2023-04-04T04:17:32.745Z,100.00
2023-04-04T04:22:40.542Z,100.00
2023-04-04T04:27:47.080Z,99.65
2023-04-04T04:32:51.719Z,98.90
2023-04-04T04:37:57.325Z,98.48
2023-04-04T04:42:59.150Z,99.03
2023-04-04T04:48:01.243Z,100.00
2023-04-04T04:53:08.436Z,99.70
2023-04-04T04:58:11.212Z,99.97
2023-04-04T05:03:17.193Z,100.00
2023-04-04T05:08:23.526Z,100.00
2023-04-04T05:13:37.643Z,100.00
2023-04-04T05:18:40.383Z,100.00
2023-04-04T05:23:48.649Z,100.00
2023-04-04T05:28:54.543Z,100.00
2023-04-04T05:34:08.203Z,100.00
2023-04-04T05:39:10.449Z,100.00
2023-04-04T05:44:20.028Z,100.00
2023-04-04T05:49:22.152Z,100.00
2023-04-04T05:54:35.752Z,100.00
2023-04-04T05:59:42.846Z,100.00
2023-04-04T06:04:51.266Z,100.00
2023-04-04T06:10:03.259Z,100.00
2023-04-04T06:15:08.592Z,100.00
2023-04-04T06:20:11.857Z,100.00
2023-04-04T06:25:14.674Z,100.00
2023-04-04T06:30:18.234Z,100.00
2023-04-04T06:35:24.160Z,100.00
2023-04-04T06:40:32.939Z,100.00
2023-04-04T06:45:35.914Z,99.43
2023-04-04T06:50:38.084Z,99.04
2023-04-04T06:55:43.700Z,98.69
2023-04-04T07:00:47.980Z,97.43
2023-04-04T07:05:52.882Z,97.88
2023-04-04T07:10:54.732Z,96.47
2023-04-04T07:15:58.749Z,94.37
2023-04-04T07:21:02.863Z,93.32
2023-04-04T07:26:06.866Z,91.70
2023-04-04T07:31:08.749Z,89.97
2023-04-04T07:36:11.037Z,88.47
2023-04-04T07:41:15.797Z,80.73
2023-04-04T07:46:18.190Z,81.35
2023-04-04T07:51:28.248Z,80.67
2023-04-04T07:56:32.271Z,79.71
2023-04-04T08:01:34.025Z,79.18
2023-04-04T08:06:36.928Z,77.87
2023-04-04T08:11:41.561Z,76.74
2023-04-04T08:16:43.621Z,76.34
2023-04-04T08:21:47.632Z,75.39
2023-04-04T08:26:58.276Z,75.12
2023-04-04T08:32:09.607Z,74.66
2023-04-04T08:37:11.474Z,74.01
2023-04-04T08:42:20.806Z,73.29
2023-04-04T08:47:24.702Z,73.43
2023-04-04T08:52:31.416Z,72.62
2023-04-04T08:57:33.557Z,71.96
2023-04-04T09:02:58.075Z,72.40
2023-04-04T09:08:07.271Z,70.92
2023-04-04T09:13:16.281Z,70.52
2023-04-04T09:18:19.023Z,69.19
2023-04-04T09:23:24.137Z,67.78
2023-04-04T09:28:26.408Z,67.42
2023-04-04T09:33:34.141Z,65.75
2023-04-04T09:38:37.677Z,65.40
2023-04-04T09:43:39.917Z,65.12
2023-04-04T09:48:51.561Z,62.43
2023-04-04T09:53:53.297Z,60.37
2023-04-04T09:59:03.707Z,60.61
2023-04-04T10:04:11.935Z,60.62
2023-04-04T10:09:15.583Z,60.01
2023-04-04T10:14:17.370Z,59.33
2023-04-04T10:19:21.412Z,58.39
2023-04-04T10:24:23.202Z,56.90
2023-04-04T10:29:27.972Z,56.81
2023-04-04T10:34:43.398Z,57.21
2023-04-04T10:39:52.097Z,57.31
2023-04-04T10:44:56.324Z,57.03
2023-04-04T10:49:58.220Z,56.60
2023-04-04T10:55:06.484Z,57.76
2023-04-04T11:00:13.069Z,56.67
2023-04-04T11:05:41.039Z,56.69
2023-04-04T11:10:50.482Z,55.74
2023-04-04T11:16:01.016Z,53.68
2023-04-04T11:21:05.136Z,54.02
2023-04-04T11:26:07.530Z,52.42
2023-04-04T11:31:18.116Z,49.40
2023-04-04T11:36:35.252Z,50.35
2023-04-04T11:41:59.836Z,48.24
2023-04-04T11:47:11.805Z,46.97
2023-04-04T11:52:19.220Z,46.33
2023-04-04T11:57:21.632Z,46.29
2023-04-04T12:02:32.528Z,43.80
2023-04-04T12:07:35.320Z,41.68
2023-04-04T12:12:44.651Z,39.57
2023-04-04T12:17:46.385Z,38.21
2023-04-04T12:22:51.773Z,37.84
2023-04-04T12:27:57.483Z,35.31
2023-04-04T12:32:59.309Z,35.38
2023-04-04T12:38:07.315Z,35.70
2023-04-04T12:43:09.656Z,35.23
2023-04-04T12:48:15.654Z,34.03
2023-04-04T12:53:28.945Z,32.91
2023-04-04T12:58:32.034Z,32.56
2023-04-04T13:03:35.032Z,32.23
2023-04-04T13:08:36.928Z,32.12
2023-04-04T13:13:40.790Z,31.18
2023-04-04T13:18:44.254Z,31.84
2023-04-04T13:23:48.454Z,30.19
2023-04-04T13:28:52.460Z,30.52
2023-04-04T13:33:54.206Z,30.94
2023-04-04T13:38:58.348Z,31.50
2023-04-04T13:44:00.402Z,30.50
2023-04-04T13:49:02.365Z,28.91
2023-04-04T13:54:08.890Z,29.72
2023-04-04T13:59:15.575Z,27.84
2023-04-04T14:04:23.933Z,29.78
2023-04-04T14:09:29.404Z,29.53
2023-04-04T14:14:35.558Z,29.75
2023-04-04T14:19:41.623Z,30.76
2023-04-04T14:24:45.603Z,30.24
2023-04-04T14:29:49.534Z,32.02
2023-04-04T14:34:51.388Z,33.06
2023-04-04T14:39:56.271Z,32.89
2023-04-04T14:45:02.357Z,34.08
2023-04-04T14:50:04.364Z,33.22
2023-04-04T14:55:10.055Z,33.04
2023-04-04T15:00:20.580Z,35.16
2023-04-04T15:05:24.510Z,35.50
2023-04-04T15:10:28.262Z,36.74
2023-04-04T15:15:32.598Z,37.18
2023-04-04T15:20:40.229Z,38.43
2023-04-04T15:25:42.186Z,39.02
2023-04-04T15:30:44.067Z,37.67
2023-04-04T15:35:50.299Z,37.32
2023-04-04T15:40:54.325Z,37.34
2023-04-04T15:45:56.367Z,38.35
2023-04-04T15:51:02.304Z,39.40
2023-04-04T15:56:08.921Z,39.08
2023-04-04T16:01:13.209Z,39.14
2023-04-04T16:06:19.720Z,39.97
2023-04-04T16:11:21.866Z,41.76
2023-04-04T16:16:25.994Z,40.90
2023-04-04T16:21:27.904Z,41.29
2023-04-04T16:26:29.686Z,42.58
2023-04-04T16:31:32.149Z,42.89
2023-04-04T16:36:36.422Z,43.15
2023-04-04T16:41:40.977Z,42.61
2023-04-04T16:46:47.196Z,43.25
2023-04-04T16:51:49.517Z,42.79
2023-04-04T16:56:53.311Z,44.57
2023-04-04T17:01:54.985Z,45.17
2023-04-04T17:06:59.098Z,45.84
2023-04-04T17:12:01.407Z,46.29
2023-04-04T17:17:07.889Z,48.18
2023-04-04T17:22:09.641Z,47.59
2023-04-04T17:27:16.145Z,48.32
2023-04-04T17:32:17.852Z,47.99
2023-04-04T17:37:19.664Z,48.46
2023-04-04T17:42:21.456Z,48.19
2023-04-04T17:47:26.123Z,49.09
2023-04-04T17:52:30.344Z,49.61
2023-04-04T17:57:32.350Z,52.05
2023-04-04T18:02:34.242Z,51.88
2023-04-04T18:07:37.172Z,52.21
2023-04-04T18:12:44.527Z,52.99
2023-04-04T18:17:53.648Z,53.21
2023-04-04T18:22:58.520Z,52.95
2023-04-04T18:28:02.065Z,54.31
2023-04-04T18:33:08.530Z,54.58
2023-04-04T18:38:12.716Z,54.87
2023-04-04T18:43:17.047Z,55.81
2023-04-04T18:48:18.837Z,55.72
2023-04-04T18:53:29.203Z,56.80
2023-04-04T18:58:35.202Z,57.06
2023-04-04T19:03:42.867Z,57.43
2023-04-04T19:08:44.732Z,58.12
2023-04-04T19:13:48.796Z,58.78
2023-04-04T19:18:52.646Z,59.29
2023-04-04T19:23:57.723Z,60.52
2023-04-04T19:28:59.431Z,60.72
2023-04-04T19:34:03.457Z,61.21
2023-04-04T19:39:08.147Z,62.13
2023-04-04T19:44:23.007Z,62.88
2023-04-04T19:49:28.005Z,63.61
2023-04-04T19:54:39.030Z,64.15
2023-04-04T20:00:13.399Z,64.95
2023-04-04T20:05:29.649Z,65.43
2023-04-04T20:10:42.475Z,66.21
2023-04-04T20:15:47.695Z,66.62
2023-04-04T20:21:10.908Z,67.08
2023-04-04T20:26:37.866Z,67.65
2023-04-04T20:32:15.647Z,67.64
2023-04-04T20:37:21.746Z,67.71
2023-04-04T20:42:26.309Z,67.76
2023-04-04T20:47:51.634Z,68.80
2023-04-04T20:52:58.524Z,69.57
2023-04-04T20:58:25.900Z,69.61
2023-04-04T21:03:35.544Z,70.41
2023-04-04T21:08:50.076Z,71.09
2023-04-04T21:13:54.610Z,71.68
2023-04-04T21:19:00.654Z,71.77
2023-04-04T21:24:02.947Z,72.41
2023-04-04T21:29:23.680Z,72.73
2023-04-04T21:34:26.924Z,74.25
2023-04-04T21:39:30.003Z,74.80
2023-04-04T21:44:34.584Z,76.33
2023-04-04T21:49:38.535Z,76.98
2023-04-04T21:54:45.451Z,77.66
2023-04-04T21:59:52.135Z,78.04
2023-04-04T22:04:59.704Z,79.05
2023-04-04T22:10:04.291Z,79.98
2023-04-04T22:15:08.940Z,80.63
2023-04-04T22:20:12.809Z,81.43
2023-04-04T22:25:21.590Z,83.21
2023-04-04T22:30:23.378Z,83.84
2023-04-04T22:35:28.076Z,84.28
2023-04-04T22:40:33.800Z,84.26
2023-04-04T22:45:37.786Z,85.02
2023-04-04T22:50:41.832Z,85.51
2023-04-04T22:55:45.916Z,85.05
2023-04-04T23:00:48.007Z,86.20
2023-04-04T23:05:51.891Z,86.83
2023-04-04T23:10:56.239Z,87.32
2023-04-04T23:15:58.038Z,88.03
2023-04-04T23:21:01.974Z,88.57
2023-04-04T23:26:06.418Z,88.94
2023-04-04T23:31:10.716Z,89.77
2023-04-04T23:36:12.447Z,90.99
2023-04-04T23:41:14.447Z,91.30
2023-04-04T23:46:16.208Z,91.99
2023-04-04T23:51:17.946Z,92.55
2023-04-04T23:56:19.612Z,92.68
